Haskins, Ohio
Current Conditions -  °F | °C
As of 7:52 PM on Saturday 25 Oct 2014 (Local Time) from KTOL Reporting Station
Clear Clear  
Wind Chill: 58°   Ceiling: Unl
Heat Index: 58°   Visibility: 10mi
Dew Point: 30°   Wind: 8mph
Humidity: 35%   Direction: 270°W
Pressure: 29.83"   Gusts: NA
Location:  41.46°N, 83.71°W
Report Text: KTOL 252352Z 27007KT 10SM CLR 14/M01 A2983 RMK AO2 SLP101 T01441011 10206 20144 53012
Loading
Personal Weather Stations






























Interactive Weather Map New forecast layout! Learn more

10-Day Weather Forecast

Advertisements
Track Severe Weather on mobile